Iriana — WDG2606 — position and weather

sailwx.info

Track history (hours):
 
Tides and Currents Weather Stations Pressure Air Temp Water Temp Dewpoint Dewpoint Depression Visibility Wind Speed Wind Dir Waves Ship Positions

Iriana

Owner: Bruce, Roger M, Green Cove Springs, FL. More information available from US FCC via Universal Licensing System and Coast Guard Vessel Documentation Center.

Last reported at 2016-Apr-23 14:32 UTC. Time now 2016-Apr-29 23:38 UTC.
Position N 18°24' W 064°37'.

Length 16 m; draft 2 m.

Type: Pleasure craft. MMSI: 367517330.

Date/timePositionNaut miles runAvg speedWind from/ knotsBaromVisibWave heightAir tempDewpointWater temp
2016-Apr-23 14:32N 18°24' W 064°37'6 6.0
2016-Apr-23 13:33N 18°23' W 064°43'4 3.9
2016-Apr-23 12:32N 18°26' W 064°40'0 0.0
2016-Apr-23 11:33N 18°26' W 064°40'0 0.0
2016-Apr-23 10:32N 18°26' W 064°40'0 0.0
2016-Apr-23 09:33N 18°26' W 064°40'0 0.0
2016-Apr-23 08:33N 18°26' W 064°40'0 0.0
2016-Apr-23 07:33N 18°26' W 064°40'0 0.0
2016-Apr-23 06:33N 18°26' W 064°40'0 0.0
2016-Apr-23 05:33N 18°26' W 064°40'0 0.0
2016-Apr-23 04:33N 18°26' W 064°40'0 0.0
2016-Apr-23 03:33N 18°26' W 064°40'0 0.0
2016-Apr-23 02:33N 18°26' W 064°40'0 0.0
2016-Apr-23 01:33N 18°26' W 064°40'0 0.0
2016-Apr-23 00:33N 18°26' W 064°40'0 0.0
2016-Apr-22 23:33N 18°26' W 064°40'0 0.0
2016-Apr-22 22:33N 18°26' W 064°40'0 0.0
2016-Apr-22 21:33N 18°26' W 064°40'0 0.0
2016-Apr-22 20:33N 18°26' W 064°40'1 0.9
2016-Apr-22 19:32N 18°26' W 064°41'2 2.4
2016-Apr-22 18:33N 18°27' W 064°43'0 0.0
2016-Apr-22 17:33N 18°27' W 064°43'0 0.0
2016-Apr-22 16:33N 18°27' W 064°43'0 0.0
2016-Apr-22 15:32N 18°27' W 064°43'4 4.2
2016-Apr-22 14:33N 18°23' W 064°42'2 0.1
2016-Apr-20 18:12N 18°21' W 064°41'2 3.6
2016-Apr-20 17:33N 18°23' W 064°42'0 0.0
2016-Apr-20 16:33N 18°23' W 064°42'1 0.9
2016-Apr-20 15:33N 18°22' W 064°42'2 0.4
2016-Apr-20 10:18N 18°20' W 064°41'0 0.0
2016-Apr-20 09:33N 18°20' W 064°41'0 0.0
2016-Apr-20 08:31N 18°20' W 064°41'0 0.0
2016-Apr-20 07:33N 18°20' W 064°41'0 0.0
2016-Apr-20 06:33N 18°20' W 064°41'0 0.0
2016-Apr-20 05:33N 18°20' W 064°41'0 0.0
2016-Apr-20 04:33N 18°20' W 064°41'0 0.0
2016-Apr-20 03:33N 18°20' W 064°41'0 0.0
2016-Apr-20 02:33N 18°20' W 064°41'0 0.0
2016-Apr-20 01:33N 18°20' W 064°41'0 0.0
2016-Apr-20 00:19N 18°20' W 064°41'0 0.0
2016-Apr-19 23:33N 18°20' W 064°41'0 0.0
2016-Apr-19 22:31N 18°20' W 064°41'0 0.0
2016-Apr-19 16:09N 18°20' W 064°41'0 0.0
2016-Apr-19 15:28N 18°21' W 064°41'0 0.0
2016-Apr-19 14:08N 18°21' W 064°41'0 0.0
2016-Apr-19 07:33N 18°21' W 064°41'0 0.0
2016-Apr-19 06:33N 18°21' W 064°41'0 0.0
2016-Apr-19 05:33N 18°21' W 064°41'0 0.0
2016-Apr-19 04:29N 18°21' W 064°41'0 0.0
2016-Apr-19 03:22N 18°21' W 064°41'0 0.0
2016-Apr-19 00:30N 18°20' W 064°41'0 0.0
2016-Apr-17 15:25N 18°20' W 064°41'2 1.9
2016-Apr-17 14:23N 18°22' W 064°42'5 6.0
2016-Apr-17 13:33N 18°21' W 064°47'0 0.3
2016-Apr-17 12:33N 18°21' W 064°47'0 0.0
2016-Apr-17 11:33N 18°21' W 064°47'0 0.0
2016-Apr-17 10:33N 18°21' W 064°47'0 0.0
2016-Apr-17 09:33N 18°21' W 064°47'0 0.0
2016-Apr-17 08:33N 18°21' W 064°47'0 0.0
2016-Apr-17 07:33N 18°21' W 064°47'0 0.0
2016-Apr-17 06:33N 18°21' W 064°47'0 0.0
2016-Apr-17 05:33N 18°21' W 064°47'0 0.0
2016-Apr-17 04:33N 18°21' W 064°47'0 0.0
2016-Apr-17 03:33N 18°21' W 064°47'0 0.0
2016-Apr-17 02:33N 18°21' W 064°47'0 0.0
2016-Apr-17 01:33N 18°21' W 064°47'0 0.0
2016-Apr-17 00:33N 18°21' W 064°47'0 0.0
2016-Apr-16 23:33N 18°21' W 064°47'0 0.0
2016-Apr-16 22:33N 18°21' W 064°47'0 0.0
2016-Apr-16 21:33N 18°21' W 064°47'0 0.0
2016-Apr-16 20:33N 18°21' W 064°47'0 0.0
2016-Apr-16 19:33N 18°21' W 064°47'0 0.0
2016-Apr-16 18:33N 18°21' W 064°47'0 0.0
2016-Apr-16 17:33N 18°21' W 064°47'0 0.0
2016-Apr-16 16:33N 18°21' W 064°47'0 0.0
2016-Apr-16 15:33N 18°21' W 064°47'0 0.0
2016-Apr-16 14:33N 18°21' W 064°47'0 0.0
2016-Apr-16 13:33N 18°21' W 064°47'0 0.0
2016-Apr-16 12:33N 18°21' W 064°47'0 0.0
2016-Apr-16 11:33N 18°21' W 064°47'0 0.0
2016-Apr-16 10:33N 18°21' W 064°47'0 0.0
2016-Apr-16 09:33N 18°21' W 064°47'0 0.0
2016-Apr-16 08:33N 18°21' W 064°47'0 0.0
2016-Apr-16 07:33N 18°21' W 064°47'0 0.0
2016-Apr-16 06:33N 18°21' W 064°47'0 0.0
2016-Apr-16 05:33N 18°21' W 064°47'0 0.0
2016-Apr-16 04:33N 18°21' W 064°47'0 0.0
2016-Apr-16 03:33N 18°21' W 064°47'0 0.0
2016-Apr-16 02:33N 18°21' W 064°47'0 0.0
2016-Apr-16 01:33N 18°21' W 064°47'0 0.0
2016-Apr-16 00:33N 18°21' W 064°47'0 0.0
2016-Apr-15 23:33N 18°21' W 064°47'0 0.0
2016-Apr-15 22:33N 18°21' W 064°47'0 0.0
2016-Apr-15 21:33N 18°21' W 064°47'0 0.0
2016-Apr-15 20:33N 18°21' W 064°47'0 0.0
2016-Apr-15 19:33N 18°21' W 064°47'0 0.0
2016-Apr-15 18:33N 18°21' W 064°47'0 0.0
2016-Apr-15 17:33N 18°21' W 064°47'0 0.0
2016-Apr-15 16:33N 18°21' W 064°47'0 0.0
2016-Apr-15 15:33N 18°21' W 064°47'0 0.0
2016-Apr-15 14:33N 18°21' W 064°47'1 1.0
2016-Apr-15 13:33N 18°20' W 064°48'0 0.0
2016-Apr-15 12:33N 18°20' W 064°48'0 0.0
2016-Apr-15 11:33N 18°20' W 064°48'0 0.0
2016-Apr-15 10:33N 18°20' W 064°48'0 0.0
2016-Apr-15 09:33N 18°20' W 064°48'0 0.0
2016-Apr-15 08:33N 18°20' W 064°48'0 0.0
2016-Apr-15 07:33N 18°20' W 064°48'0 0.0
2016-Apr-15 06:33N 18°20' W 064°48'0 0.0
2016-Apr-15 05:33N 18°20' W 064°48'0 0.0
2016-Apr-15 04:33N 18°20' W 064°48'0 0.0
2016-Apr-15 03:33N 18°20' W 064°48'0 0.0
2016-Apr-15 02:33N 18°20' W 064°48'0 0.0
2016-Apr-15 01:33N 18°20' W 064°48'0 0.0
2016-Apr-15 00:33N 18°20' W 064°48'0 0.0
2016-Apr-14 23:33N 18°20' W 064°48'0 0.0
2016-Apr-14 22:33N 18°20' W 064°48'0 0.0
2016-Apr-14 21:33N 18°20' W 064°48'0 0.0
2016-Apr-14 20:33N 18°20' W 064°48'0 0.0
2016-Apr-14 19:33N 18°20' W 064°48'0 0.0
2016-Apr-14 18:33N 18°20' W 064°48'0 0.0
2016-Apr-14 17:33N 18°20' W 064°48'0 0.0
2016-Apr-14 16:33N 18°20' W 064°48'0 0.0
2016-Apr-14 15:33N 18°20' W 064°48'  
Track history (hours):
 
Tides and Currents Weather Stations Pressure Air Temp Water Temp Dewpoint Dewpoint Depression Visibility Wind Speed Wind Dir Waves Ship Positions

Iriana

Owner: Bruce, Roger M, Green Cove Springs, FL. More information available from US FCC via Universal Licensing System and Coast Guard Vessel Documentation Center.

Last reported at 2016-Apr-23 14:32 UTC. Time now 2016-Apr-29 23:38 UTC.
Position N 18°24' W 064°37'.

Length 16 m; draft 2 m.

Type: Pleasure craft. MMSI: 367517330.

Date/timePositionNaut miles runAvg speedWind from/ knotsBaromVisibWave heightAir tempDewpointWater temp
2016-Apr-23 14:32N 18°24' W 064°37'6 6.0
2016-Apr-23 13:33N 18°23' W 064°43'4 3.9
2016-Apr-23 12:32N 18°26' W 064°40'0 0.0
2016-Apr-23 11:33N 18°26' W 064°40'0 0.0
2016-Apr-23 10:32N 18°26' W 064°40'0 0.0
2016-Apr-23 09:33N 18°26' W 064°40'0 0.0
2016-Apr-23 08:33N 18°26' W 064°40'0 0.0
2016-Apr-23 07:33N 18°26' W 064°40'0 0.0
2016-Apr-23 06:33N 18°26' W 064°40'0 0.0
2016-Apr-23 05:33N 18°26' W 064°40'0 0.0
2016-Apr-23 04:33N 18°26' W 064°40'0 0.0
2016-Apr-23 03:33N 18°26' W 064°40'0 0.0
2016-Apr-23 02:33N 18°26' W 064°40'0 0.0
2016-Apr-23 01:33N 18°26' W 064°40'0 0.0
2016-Apr-23 00:33N 18°26' W 064°40'0 0.0
2016-Apr-22 23:33N 18°26' W 064°40'0 0.0
2016-Apr-22 22:33N 18°26' W 064°40'0 0.0
2016-Apr-22 21:33N 18°26' W 064°40'0 0.0
2016-Apr-22 20:33N 18°26' W 064°40'1 0.9
2016-Apr-22 19:32N 18°26' W 064°41'2 2.4
2016-Apr-22 18:33N 18°27' W 064°43'0 0.0
2016-Apr-22 17:33N 18°27' W 064°43'0 0.0
2016-Apr-22 16:33N 18°27' W 064°43'0 0.0
2016-Apr-22 15:32N 18°27' W 064°43'4 4.2
2016-Apr-22 14:33N 18°23' W 064°42'2 0.1
2016-Apr-20 18:12N 18°21' W 064°41'2 3.6
2016-Apr-20 17:33N 18°23' W 064°42'0 0.0
2016-Apr-20 16:33N 18°23' W 064°42'1 0.9
2016-Apr-20 15:33N 18°22' W 064°42'2 0.4
2016-Apr-20 10:18N 18°20' W 064°41'0 0.0
2016-Apr-20 09:33N 18°20' W 064°41'0 0.0
2016-Apr-20 08:31N 18°20' W 064°41'0 0.0
2016-Apr-20 07:33N 18°20' W 064°41'0 0.0
2016-Apr-20 06:33N 18°20' W 064°41'0 0.0
2016-Apr-20 05:33N 18°20' W 064°41'0 0.0
2016-Apr-20 04:33N 18°20' W 064°41'0 0.0
2016-Apr-20 03:33N 18°20' W 064°41'0 0.0
2016-Apr-20 02:33N 18°20' W 064°41'0 0.0
2016-Apr-20 01:33N 18°20' W 064°41'0 0.0
2016-Apr-20 00:19N 18°20' W 064°41'0 0.0
2016-Apr-19 23:33N 18°20' W 064°41'0 0.0
2016-Apr-19 22:31N 18°20' W 064°41'0 0.0
2016-Apr-19 16:09N 18°20' W 064°41'0 0.0
2016-Apr-19 15:28N 18°21' W 064°41'0 0.0
2016-Apr-19 14:08N 18°21' W 064°41'0 0.0
2016-Apr-19 07:33N 18°21' W 064°41'0 0.0
2016-Apr-19 06:33N 18°21' W 064°41'0 0.0
2016-Apr-19 05:33N 18°21' W 064°41'0 0.0
2016-Apr-19 04:29N 18°21' W 064°41'0 0.0
2016-Apr-19 03:22N 18°21' W 064°41'0 0.0
2016-Apr-19 00:30N 18°20' W 064°41'0 0.0
2016-Apr-17 15:25N 18°20' W 064°41'2 1.9
2016-Apr-17 14:23N 18°22' W 064°42'5 6.0
2016-Apr-17 13:33N 18°21' W 064°47'0 0.3
2016-Apr-17 12:33N 18°21' W 064°47'0 0.0
2016-Apr-17 11:33N 18°21' W 064°47'0 0.0
2016-Apr-17 10:33N 18°21' W 064°47'0 0.0
2016-Apr-17 09:33N 18°21' W 064°47'0 0.0
2016-Apr-17 08:33N 18°21' W 064°47'0 0.0
2016-Apr-17 07:33N 18°21' W 064°47'0 0.0
2016-Apr-17 06:33N 18°21' W 064°47'0 0.0
2016-Apr-17 05:33N 18°21' W 064°47'0 0.0
2016-Apr-17 04:33N 18°21' W 064°47'0 0.0
2016-Apr-17 03:33N 18°21' W 064°47'0 0.0
2016-Apr-17 02:33N 18°21' W 064°47'0 0.0
2016-Apr-17 01:33N 18°21' W 064°47'0 0.0
2016-Apr-17 00:33N 18°21' W 064°47'0 0.0
2016-Apr-16 23:33N 18°21' W 064°47'0 0.0
2016-Apr-16 22:33N 18°21' W 064°47'0 0.0
2016-Apr-16 21:33N 18°21' W 064°47'0 0.0
2016-Apr-16 20:33N 18°21' W 064°47'0 0.0
2016-Apr-16 19:33N 18°21' W 064°47'0 0.0
2016-Apr-16 18:33N 18°21' W 064°47'0 0.0
2016-Apr-16 17:33N 18°21' W 064°47'0 0.0
2016-Apr-16 16:33N 18°21' W 064°47'0 0.0
2016-Apr-16 15:33N 18°21' W 064°47'0 0.0
2016-Apr-16 14:33N 18°21' W 064°47'0 0.0
2016-Apr-16 13:33N 18°21' W 064°47'0 0.0
2016-Apr-16 12:33N 18°21' W 064°47'0 0.0
2016-Apr-16 11:33N 18°21' W 064°47'0 0.0
2016-Apr-16 10:33N 18°21' W 064°47'0 0.0
2016-Apr-16 09:33N 18°21' W 064°47'0 0.0
2016-Apr-16 08:33N 18°21' W 064°47'0 0.0
2016-Apr-16 07:33N 18°21' W 064°47'0 0.0
2016-Apr-16 06:33N 18°21' W 064°47'0 0.0
2016-Apr-16 05:33N 18°21' W 064°47'0 0.0
2016-Apr-16 04:33N 18°21' W 064°47'0 0.0
2016-Apr-16 03:33N 18°21' W 064°47'0 0.0
2016-Apr-16 02:33N 18°21' W 064°47'0 0.0
2016-Apr-16 01:33N 18°21' W 064°47'0 0.0
2016-Apr-16 00:33N 18°21' W 064°47'0 0.0
2016-Apr-15 23:33N 18°21' W 064°47'0 0.0
2016-Apr-15 22:33N 18°21' W 064°47'0 0.0
2016-Apr-15 21:33N 18°21' W 064°47'0 0.0
2016-Apr-15 20:33N 18°21' W 064°47'0 0.0
2016-Apr-15 19:33N 18°21' W 064°47'0 0.0
2016-Apr-15 18:33N 18°21' W 064°47'0 0.0
2016-Apr-15 17:33N 18°21' W 064°47'0 0.0
2016-Apr-15 16:33N 18°21' W 064°47'0 0.0
2016-Apr-15 15:33N 18°21' W 064°47'0 0.0
2016-Apr-15 14:33N 18°21' W 064°47'1 1.0
2016-Apr-15 13:33N 18°20' W 064°48'0 0.0
2016-Apr-15 12:33N 18°20' W 064°48'0 0.0
2016-Apr-15 11:33N 18°20' W 064°48'0 0.0
2016-Apr-15 10:33N 18°20' W 064°48'0 0.0
2016-Apr-15 09:33N 18°20' W 064°48'0 0.0
2016-Apr-15 08:33N 18°20' W 064°48'0 0.0
2016-Apr-15 07:33N 18°20' W 064°48'0 0.0
2016-Apr-15 06:33N 18°20' W 064°48'0 0.0
2016-Apr-15 05:33N 18°20' W 064°48'0 0.0
2016-Apr-15 04:33N 18°20' W 064°48'0 0.0
2016-Apr-15 03:33N 18°20' W 064°48'0 0.0
2016-Apr-15 02:33N 18°20' W 064°48'0 0.0
2016-Apr-15 01:33N 18°20' W 064°48'0 0.0
2016-Apr-15 00:33N 18°20' W 064°48'0 0.0
2016-Apr-14 23:33N 18°20' W 064°48'0 0.0
2016-Apr-14 22:33N 18°20' W 064°48'0 0.0
2016-Apr-14 21:33N 18°20' W 064°48'0 0.0
2016-Apr-14 20:33N 18°20' W 064°48'0 0.0
2016-Apr-14 19:33N 18°20' W 064°48'0 0.0
2016-Apr-14 18:33N 18°20' W 064°48'0 0.0
2016-Apr-14 17:33N 18°20' W 064°48'0 0.0
2016-Apr-14 16:33N 18°20' W 064°48'0 0.0
2016-Apr-14 15:33N 18°20' W 064°48'  

Dump ship's entire track history